Time;durP1;ratioP1;P1;durP2;ratioP2;P2;SDS_P1;SDS_P2;PMS_P1;PMS_P2;Temp;Humidity;BMP_temperature;BMP_pressure;BME280_temperature;BME280_humidity;BME280_pressure;Samples;Min_cycle;Max_cycle;Signal;HPM_P1;HPM_P2
2023/03/04 00:01:08;;;;;;;17.80;7.13;;;;;;;;;;5086972;28;20225;-73
2023/03/04 00:03:36;;;;;;;20.80;6.00;;;;;;;;;;5086973;28;20213;-73
2023/03/04 00:06:03;;;;;;;16.90;8.30;;;;;;;;;;5086785;28;20368;-73
2023/03/04 00:08:30;;;;;;;14.20;5.87;;;;;;;;;;5086108;28;20336;-73
2023/03/04 00:10:58;;;;;;;15.90;6.17;;;;;;;;;;5086763;28;20814;-73
2023/03/04 00:13:25;;;;;;;13.97;6.37;;;;;;;;;;5086794;28;20211;-73
2023/03/04 00:15:52;;;;;;;11.23;5.70;;;;;;;;;;5086503;28;20201;-73
2023/03/04 00:18:20;;;;;;;10.83;4.87;;;;;;;;;;5086550;28;20761;-73
2023/03/04 00:20:48;;;;;;;12.53;5.20;;;;;;;;;;5086473;28;20286;-72
2023/03/04 00:23:15;;;;;;;14.20;5.80;;;;;;;;;;5086234;28;20202;-74
2023/03/04 00:25:42;;;;;;;9.47;4.23;;;;;;;;;;5085986;28;20590;-73
2023/03/04 00:28:11;;;;;;;10.30;4.50;;;;;;;;;;5086447;28;20739;-73
2023/03/04 00:30:38;;;;;;;10.33;5.30;;;;;;;;;;5086487;28;20213;-73
2023/03/04 00:33:05;;;;;;;14.83;5.73;;;;;;;;;;5086102;28;20203;-73
2023/03/04 00:35:32;;;;;;;8.00;4.70;;;;;;;;;;5085690;28;20211;-73
2023/03/04 00:37:59;;;;;;;10.03;4.50;;;;;;;;;;5075434;28;20202;-73
2023/03/04 00:40:26;;;;;;;12.77;5.67;;;;;;;;;;5086538;28;20218;-73
2023/03/04 00:42:53;;;;;;;12.27;5.97;;;;;;;;;;5084284;28;20194;-73
2023/03/04 00:45:21;;;;;;;7.20;4.73;;;;;;;;;;5074272;28;20203;-75
2023/03/04 00:47:48;;;;;;;8.60;5.73;;;;;;;;;;5085932;28;20230;-73
2023/03/04 00:50:16;;;;;;;15.03;4.40;;;;;;;;;;5080843;28;20203;-73
2023/03/04 00:52:43;;;;;;;9.17;4.27;;;;;;;;;;5082593;28;20209;-73
2023/03/04 00:55:10;;;;;;;5.60;3.87;;;;;;;;;;5089571;28;20210;-73
2023/03/04 00:57:37;;;;;;;11.13;5.07;;;;;;;;;;5070729;28;20199;-73
2023/03/04 01:00:05;;;;;;;14.23;5.83;;;;;;;;;;5089619;28;20259;-72
2023/03/04 01:02:33;;;;;;;12.83;6.50;;;;;;;;;;5089724;28;20671;-75
2023/03/04 01:05:00;;;;;;;12.87;5.47;;;;;;;;;;5089560;28;20213;-73
2023/03/04 01:07:27;;;;;;;13.60;5.97;;;;;;;;;;5089399;28;20237;-75
2023/03/04 01:09:54;;;;;;;13.17;5.80;;;;;;;;;;5084432;28;20719;-72
2023/03/04 01:12:21;;;;;;;15.47;4.33;;;;;;;;;;5081346;28;20206;-73
2023/03/04 01:14:49;;;;;;;16.80;4.43;;;;;;;;;;5080359;28;20209;-74
2023/03/04 01:17:16;;;;;;;8.27;3.43;;;;;;;;;;5076836;28;20730;-74
2023/03/04 01:19:44;;;;;;;9.10;4.43;;;;;;;;;;5078544;28;20218;-74
2023/03/04 01:22:13;;;;;;;12.90;5.43;;;;;;;;;;5074818;28;20238;-74
2023/03/04 01:24:41;;;;;;;7.80;4.23;;;;;;;;;;5089520;28;20198;-73
2023/03/04 01:27:08;;;;;;;10.20;5.70;;;;;;;;;;5084041;28;20208;-73
2023/03/04 01:29:35;;;;;;;8.73;4.67;;;;;;;;;;5077429;28;20209;-73
2023/03/04 01:32:02;;;;;;;13.33;5.70;;;;;;;;;;5089049;28;20474;-74
2023/03/04 01:34:29;;;;;;;8.20;4.50;;;;;;;;;;5089212;28;20207;-74
2023/03/04 01:36:57;;;;;;;8.80;4.50;;;;;;;;;;5077996;28;20231;-74
2023/03/04 01:39:24;;;;;;;10.27;3.80;;;;;;;;;;5089333;28;20217;-74
2023/03/04 01:41:51;;;;;;;8.87;4.10;;;;;;;;;;5089129;28;20198;-74
2023/03/04 01:44:18;;;;;;;12.10;4.50;;;;;;;;;;5082025;28;20217;-74
2023/03/04 01:46:48;;;;;;;9.57;5.03;;;;;;;;;;5089168;28;20710;-74
2023/03/04 01:49:16;;;;;;;8.57;4.80;;;;;;;;;;5080491;28;20241;-74
2023/03/04 01:51:44;;;;;;;8.73;4.73;;;;;;;;;;5078093;28;20299;-74
2023/03/04 01:54:12;;;;;;;9.53;4.10;;;;;;;;;;5088234;28;20202;-74
2023/03/04 01:56:40;;;;;;;11.47;4.03;;;;;;;;;;5088872;28;20214;-74
2023/03/04 01:59:08;;;;;;;9.63;3.23;;;;;;;;;;5085399;28;20202;-74
2023/03/04 02:01:35;;;;;;;12.10;5.17;;;;;;;;;;5084908;28;20206;-74
2023/03/04 02:04:02;;;;;;;13.10;4.10;;;;;;;;;;5086243;28;20698;-74
2023/03/04 02:06:29;;;;;;;9.53;3.43;;;;;;;;;;5086802;28;20243;-74
2023/03/04 02:08:56;;;;;;;9.13;4.70;;;;;;;;;;5088169;28;20236;-74
2023/03/04 02:11:25;;;;;;;10.53;4.23;;;;;;;;;;5088257;28;20617;-74
2023/03/04 02:13:52;;;;;;;7.07;4.53;;;;;;;;;;5088594;28;20220;-73
2023/03/04 02:16:19;;;;;;;11.37;4.80;;;;;;;;;;5088323;28;20671;-75
2023/03/04 02:18:47;;;;;;;6.40;2.97;;;;;;;;;;5088811;28;20605;-73
2023/03/04 02:21:18;;;;;;;9.33;4.43;;;;;;;;;;5088104;28;20229;-74
2023/03/04 02:23:47;;;;;;;8.33;3.63;;;;;;;;;;5088474;28;20558;-74
2023/03/04 02:26:16;;;;;;;7.97;4.33;;;;;;;;;;5088114;28;20213;-74
2023/03/04 02:28:43;;;;;;;10.30;5.50;;;;;;;;;;5088067;28;20226;-73
2023/03/04 02:31:18;;;;;;;7.70;3.63;;;;;;;;;;5088236;28;20678;-74
2023/03/04 02:33:45;;;;;;;6.27;3.33;;;;;;;;;;5088334;28;20203;-73
2023/03/04 02:36:12;;;;;;;2.97;2.70;;;;;;;;;;5087909;28;20571;-72
2023/03/04 02:38:39;;;;;;;7.47;3.83;;;;;;;;;;5087228;28;20200;-73
2023/03/04 02:41:07;;;;;;;3.87;3.43;;;;;;;;;;5088381;28;20226;-73
2023/03/04 02:43:35;;;;;;;10.20;4.63;;;;;;;;;;5087790;28;20745;-73
2023/03/04 02:46:02;;;;;;;12.57;3.90;;;;;;;;;;5087735;28;20217;-73
2023/03/04 02:48:29;;;;;;;9.00;4.40;;;;;;;;;;5087482;28;20607;-73
2023/03/04 02:50:56;;;;;;;12.57;4.93;;;;;;;;;;5088805;28;20205;-73
2023/03/04 02:53:24;;;;;;;6.70;4.07;;;;;;;;;;5089142;28;20208;-73
2023/03/04 02:55:51;;;;;;;12.67;4.40;;;;;;;;;;5087995;28;20212;-73
2023/03/04 02:58:18;;;;;;;8.90;4.67;;;;;;;;;;5087777;28;20205;-73
2023/03/04 03:00:46;;;;;;;10.33;4.27;;;;;;;;;;5088360;28;20718;-73
2023/03/04 03:03:13;;;;;;;4.97;2.73;;;;;;;;;;5086833;28;20208;-73
2023/03/04 03:05:40;;;;;;;10.00;4.83;;;;;;;;;;5088464;28;20209;-73
2023/03/04 03:08:07;;;;;;;17.83;4.70;;;;;;;;;;5087914;28;20242;-73
2023/03/04 03:10:35;;;;;;;6.50;3.43;;;;;;;;;;5088119;28;20204;-73
2023/03/04 03:13:02;;;;;;;7.17;3.33;;;;;;;;;;5087584;28;20215;-73
2023/03/04 03:15:29;;;;;;;6.40;3.33;;;;;;;;;;5088537;28;20634;-73
2023/03/04 03:17:57;;;;;;;9.37;3.03;;;;;;;;;;5087544;28;20258;-73
2023/03/04 03:20:25;;;;;;;7.53;3.50;;;;;;;;;;5087817;28;20298;-73
2023/03/04 03:22:52;;;;;;;5.93;3.67;;;;;;;;;;5087381;28;20216;-73
2023/03/04 03:25:19;;;;;;;9.07;2.30;;;;;;;;;;5088024;28;20221;-73
2023/03/04 03:27:46;;;;;;;3.73;2.23;;;;;;;;;;5087643;28;20201;-73
2023/03/04 03:30:14;;;;;;;2.00;1.90;;;;;;;;;;5087922;28;20201;-73
2023/03/04 03:32:41;;;;;;;4.20;2.87;;;;;;;;;;5087734;28;20213;-73
2023/03/04 03:35:10;;;;;;;5.93;2.93;;;;;;;;;;5078486;28;20209;-73
2023/03/04 03:37:37;;;;;;;4.27;2.63;;;;;;;;;;5087791;28;20216;-73
2023/03/04 03:40:05;;;;;;;4.30;2.73;;;;;;;;;;5087700;28;20213;-73
2023/03/04 03:42:32;;;;;;;5.83;2.43;;;;;;;;;;5087236;28;20203;-73
2023/03/04 03:44:59;;;;;;;5.03;2.70;;;;;;;;;;5087647;28;20204;-72
2023/03/04 03:47:26;;;;;;;7.50;3.20;;;;;;;;;;5087529;28;20197;-72
2023/03/04 03:49:53;;;;;;;2.03;1.53;;;;;;;;;;5084033;28;20710;-73
2023/03/04 03:52:21;;;;;;;6.10;2.93;;;;;;;;;;5087394;28;20210;-72
2023/03/04 03:54:48;;;;;;;5.67;2.97;;;;;;;;;;5086679;28;20209;-72
2023/03/04 03:57:15;;;;;;;11.73;4.07;;;;;;;;;;5086388;28;20204;-72
2023/03/04 03:59:42;;;;;;;7.50;4.47;;;;;;;;;;5079836;28;20258;-72
2023/03/04 04:02:09;;;;;;;7.80;3.37;;;;;;;;;;5086886;28;20691;-72
2023/03/04 04:04:36;;;;;;;12.77;4.77;;;;;;;;;;5081140;28;20271;-72
2023/03/04 04:07:03;;;;;;;10.57;3.83;;;;;;;;;;5084765;28;20248;-72
2023/03/04 04:09:31;;;;;;;8.17;4.40;;;;;;;;;;5085271;28;20224;-72
2023/03/04 04:11:58;;;;;;;8.87;4.30;;;;;;;;;;5086960;28;20274;-72
2023/03/04 04:14:25;;;;;;;6.87;2.43;;;;;;;;;;5086542;28;20217;-72
2023/03/04 04:16:52;;;;;;;7.07;3.93;;;;;;;;;;5086263;28;20270;-72
2023/03/04 04:19:20;;;;;;;6.37;4.23;;;;;;;;;;5086586;28;20209;-73
2023/03/04 04:21:47;;;;;;;8.90;4.43;;;;;;;;;;5087966;28;20249;-73
2023/03/04 04:24:15;;;;;;;13.03;4.43;;;;;;;;;;5091056;28;20213;-73
2023/03/04 04:26:43;;;;;;;16.70;5.60;;;;;;;;;;5090397;28;20245;-73
2023/03/04 04:29:10;;;;;;;10.83;3.97;;;;;;;;;;5090324;28;20278;-73
2023/03/04 04:31:37;;;;;;;6.00;3.70;;;;;;;;;;5090461;28;20213;-73
2023/03/04 04:34:04;;;;;;;10.00;4.63;;;;;;;;;;5090494;28;20208;-72
2023/03/04 04:36:31;;;;;;;10.03;5.10;;;;;;;;;;5091047;28;20667;-72
2023/03/04 04:38:58;;;;;;;8.40;4.63;;;;;;;;;;5090439;28;20205;-73
2023/03/04 04:41:27;;;;;;;6.93;4.13;;;;;;;;;;5091852;28;20426;-72
2023/03/04 04:43:56;;;;;;;11.67;5.60;;;;;;;;;;5090526;28;20209;-72
2023/03/04 04:46:23;;;;;;;11.97;4.67;;;;;;;;;;5091021;28;20254;-72
2023/03/04 04:48:50;;;;;;;16.10;4.83;;;;;;;;;;5090292;28;20237;-72
2023/03/04 04:51:17;;;;;;;14.73;6.27;;;;;;;;;;5091102;28;20208;-73
2023/03/04 04:53:44;;;;;;;11.27;4.63;;;;;;;;;;5090077;28;20566;-72
2023/03/04 04:56:13;;;;;;;4.90;4.30;;;;;;;;;;5090432;28;20217;-73
2023/03/04 04:58:40;;;;;;;15.47;5.63;;;;;;;;;;5075357;28;20246;-72
2023/03/04 05:01:09;;;;;;;12.40;5.47;;;;;;;;;;5090891;28;20524;-73
2023/03/04 05:03:36;;;;;;;8.60;4.47;;;;;;;;;;5090490;28;20624;-73
2023/03/04 05:06:04;;;;;;;16.33;5.10;;;;;;;;;;5090659;28;20328;-73
2023/03/04 05:08:31;;;;;;;11.40;5.47;;;;;;;;;;5090183;28;20279;-73
2023/03/04 05:10:59;;;;;;;9.60;6.00;;;;;;;;;;5089847;28;20285;-72
2023/03/04 05:13:26;;;;;;;13.10;4.97;;;;;;;;;;5090011;28;20205;-73
2023/03/04 05:15:53;;;;;;;13.00;5.50;;;;;;;;;;5090684;28;20220;-72
2023/03/04 05:18:22;;;;;;;13.67;5.20;;;;;;;;;;5090536;28;20228;-73
2023/03/04 05:20:51;;;;;;;12.10;4.50;;;;;;;;;;5089675;28;20205;-73
2023/03/04 05:23:18;;;;;;;6.97;5.33;;;;;;;;;;5089827;28;20319;-72
2023/03/04 05:25:45;;;;;;;13.63;6.23;;;;;;;;;;5090433;28;20576;-73
2023/03/04 05:28:12;;;;;;;11.27;5.90;;;;;;;;;;5089671;28;20205;-73
2023/03/04 05:30:39;;;;;;;10.23;4.27;;;;;;;;;;5090062;28;20202;-73
2023/03/04 05:33:07;;;;;;;12.43;5.73;;;;;;;;;;5088607;28;20201;-73
2023/03/04 05:35:36;;;;;;;6.03;4.20;;;;;;;;;;5089828;28;20201;-73
2023/03/04 05:38:03;;;;;;;11.03;4.23;;;;;;;;;;5089807;28;20740;-72
2023/03/04 05:40:30;;;;;;;12.17;4.97;;;;;;;;;;5089761;28;20200;-73
2023/03/04 05:42:57;;;;;;;12.70;5.70;;;;;;;;;;5089458;28;20217;-73
2023/03/04 05:45:25;;;;;;;8.10;4.60;;;;;;;;;;5090239;28;20213;-72
2023/03/04 05:47:52;;;;;;;11.30;5.40;;;;;;;;;;5089766;28;20206;-73
2023/03/04 05:50:20;;;;;;;14.10;5.57;;;;;;;;;;5089656;28;20232;-73
2023/03/04 05:52:48;;;;;;;8.80;4.97;;;;;;;;;;5089353;28;20213;-72
2023/03/04 05:55:16;;;;;;;10.33;5.53;;;;;;;;;;5089693;28;20214;-73
2023/03/04 05:57:43;;;;;;;12.83;5.27;;;;;;;;;;5089335;28;20212;-72
2023/03/04 06:00:12;;;;;;;8.63;5.80;;;;;;;;;;5089585;28;20652;-73
2023/03/04 06:02:39;;;;;;;9.93;5.47;;;;;;;;;;5088924;28;20294;-73
2023/03/04 06:05:06;;;;;;;9.67;5.80;;;;;;;;;;5089498;28;20217;-73
2023/03/04 06:07:33;;;;;;;11.27;5.30;;;;;;;;;;5088751;28;20237;-72
2023/03/04 06:10:02;;;;;;;17.60;6.67;;;;;;;;;;5089778;28;20279;-72
2023/03/04 06:12:29;;;;;;;13.60;6.97;;;;;;;;;;5088358;28;20225;-73
2023/03/04 06:14:56;;;;;;;16.50;5.13;;;;;;;;;;5086962;28;20210;-73
2023/03/04 06:17:23;;;;;;;13.33;5.27;;;;;;;;;;5085436;28;20255;-73
2023/03/04 06:19:50;;;;;;;9.50;4.97;;;;;;;;;;5089382;28;20217;-72
2023/03/04 06:22:17;;;;;;;14.90;5.53;;;;;;;;;;5088670;28;20255;-73
2023/03/04 06:24:44;;;;;;;19.43;7.53;;;;;;;;;;5088744;28;20205;-72
2023/03/04 06:27:15;;;;;;;19.60;6.77;;;;;;;;;;5088372;28;20590;-73
2023/03/04 06:29:42;;;;;;;20.63;6.73;;;;;;;;;;5088661;28;20226;-73
2023/03/04 06:32:09;;;;;;;24.73;7.50;;;;;;;;;;5089034;28;20202;-73
2023/03/04 06:34:36;;;;;;;16.07;7.50;;;;;;;;;;5088340;28;20217;-73
2023/03/04 06:37:03;;;;;;;11.47;4.97;;;;;;;;;;5089517;28;20313;-73
2023/03/04 06:39:30;;;;;;;16.17;5.67;;;;;;;;;;5088593;28;20585;-73
2023/03/04 06:41:57;;;;;;;19.40;7.40;;;;;;;;;;5089135;28;20209;-73
2023/03/04 06:44:25;;;;;;;13.30;5.90;;;;;;;;;;5088447;28;20213;-73
2023/03/04 06:46:52;;;;;;;11.90;5.83;;;;;;;;;;5088655;28;20228;-73
2023/03/04 06:49:19;;;;;;;24.97;8.67;;;;;;;;;;5087808;28;20597;-73
2023/03/04 06:51:46;;;;;;;18.33;8.57;;;;;;;;;;5087577;28;20260;-73
2023/03/04 06:54:13;;;;;;;18.90;7.50;;;;;;;;;;5089009;28;20216;-73
2023/03/04 06:56:40;;;;;;;22.30;7.23;;;;;;;;;;5088214;28;20210;-73
2023/03/04 06:59:07;;;;;;;22.37;7.73;;;;;;;;;;5068690;28;20206;-73
2023/03/04 07:01:36;;;;;;;12.83;5.77;;;;;;;;;;5086898;28;20206;-73
2023/03/04 07:04:07;;;;;;;23.33;8.27;;;;;;;;;;5088764;28;20209;-74
2023/03/04 07:06:34;;;;;;;17.70;7.03;;;;;;;;;;5088645;28;20242;-74
2023/03/04 07:09:01;;;;;;;15.23;6.53;;;;;;;;;;5088229;28;20238;-71
2023/03/04 07:11:28;;;;;;;20.57;6.40;;;;;;;;;;5087901;28;20209;-73
2023/03/04 07:13:55;;;;;;;24.07;8.50;;;;;;;;;;5087699;28;20712;-74
2023/03/04 07:16:23;;;;;;;22.73;9.27;;;;;;;;;;5088268;28;20210;-74
2023/03/04 07:18:51;;;;;;;23.30;7.80;;;;;;;;;;5085564;28;20206;-73
2023/03/04 07:21:19;;;;;;;17.33;7.17;;;;;;;;;;5084185;28;20640;-73
2023/03/04 07:23:47;;;;;;;13.93;7.13;;;;;;;;;;5088312;28;20213;-73
2023/03/04 07:26:14;;;;;;;18.07;6.60;;;;;;;;;;5088099;28;20676;-73
2023/03/04 07:28:42;;;;;;;25.90;8.47;;;;;;;;;;5086748;28;20213;-73
2023/03/04 07:31:13;;;;;;;17.43;7.70;;;;;;;;;;5088390;28;20240;-73
2023/03/04 07:33:40;;;;;;;26.87;8.53;;;;;;;;;;5085132;28;20203;-73
2023/03/04 07:36:08;;;;;;;25.97;8.97;;;;;;;;;;5081905;28;20204;-73
2023/03/04 07:38:35;;;;;;;20.80;8.83;;;;;;;;;;5088312;28;20209;-73
2023/03/04 07:41:02;;;;;;;21.03;8.33;;;;;;;;;;5087909;28;20238;-73
2023/03/04 07:43:29;;;;;;;20.03;7.23;;;;;;;;;;5087227;28;20211;-73
2023/03/04 07:46:00;;;;;;;21.93;8.87;;;;;;;;;;5075768;28;20256;-73
2023/03/04 07:48:27;;;;;;;19.63;9.10;;;;;;;;;;5087537;28;20251;-73
2023/03/04 07:51:03;;;;;;;17.13;8.63;;;;;;;;;;5087351;28;20584;-73
2023/03/04 07:53:31;;;;;;;21.03;8.03;;;;;;;;;;5087125;28;20255;-73
2023/03/04 07:55:58;;;;;;;22.60;7.67;;;;;;;;;;5087957;28;20298;-73
2023/03/04 07:58:25;;;;;;;23.00;8.10;;;;;;;;;;5091377;28;20206;-73
2023/03/04 08:00:52;;;;;;;18.33;8.23;;;;;;;;;;5091450;28;20283;-72
2023/03/04 08:03:19;;;;;;;17.67;8.23;;;;;;;;;;5091160;28;20221;-73
2023/03/04 08:05:46;;;;;;;20.23;8.40;;;;;;;;;;5090723;28;20638;-72
2023/03/04 08:08:13;;;;;;;21.57;8.67;;;;;;;;;;5091649;28;20194;-72
2023/03/04 08:10:42;;;;;;;28.07;8.53;;;;;;;;;;5091596;28;20232;-72
2023/03/04 08:13:09;;;;;;;19.93;7.57;;;;;;;;;;5090888;28;20724;-72
2023/03/04 08:15:40;;;;;;;21.07;9.33;;;;;;;;;;5083354;28;20671;-72
2023/03/04 08:18:07;;;;;;;30.83;8.97;;;;;;;;;;5091644;28;20215;-73
2023/03/04 08:20:34;;;;;;;17.80;7.50;;;;;;;;;;5091394;28;20245;-72
2023/03/04 08:23:01;;;;;;;23.80;8.50;;;;;;;;;;5091117;28;20231;-72
2023/03/04 08:25:28;;;;;;;23.67;8.73;;;;;;;;;;5091039;28;20212;-73
2023/03/04 08:27:56;;;;;;;28.10;8.80;;;;;;;;;;5090986;28;20210;-73
2023/03/04 08:30:23;;;;;;;24.67;8.27;;;;;;;;;;5091362;28;20221;-73
2023/03/04 08:32:50;;;;;;;20.37;8.60;;;;;;;;;;5091073;28;20209;-74
2023/03/04 08:35:17;;;;;;;19.63;9.50;;;;;;;;;;5091307;28;20210;-76
2023/03/04 08:37:44;;;;;;;25.83;9.07;;;;;;;;;;5090656;28;20217;-73
2023/03/04 08:40:12;;;;;;;18.07;9.00;;;;;;;;;;5091061;28;20220;-72
2023/03/04 08:42:39;;;;;;;23.40;9.80;;;;;;;;;;5087259;28;20206;-73
2023/03/04 08:45:08;;;;;;;23.90;10.47;;;;;;;;;;5090448;28;20707;-71
2023/03/04 08:47:35;;;;;;;27.33;10.47;;;;;;;;;;5090735;28;20633;-71
2023/03/04 08:50:02;;;;;;;24.33;10.03;;;;;;;;;;5089903;28;20237;-71
2023/03/04 08:52:30;;;;;;;22.43;8.80;;;;;;;;;;5091208;28;20211;-71
2023/03/04 08:54:57;;;;;;;25.83;9.80;;;;;;;;;;5091215;28;20628;-71
2023/03/04 08:57:24;;;;;;;21.43;9.10;;;;;;;;;;5090238;28;20213;-71
2023/03/04 08:59:51;;;;;;;24.27;8.83;;;;;;;;;;5091318;28;20205;-72
2023/03/04 09:02:19;;;;;;;22.87;10.23;;;;;;;;;;5090624;28;20214;-73
2023/03/04 09:04:46;;;;;;;26.80;9.93;;;;;;;;;;5091017;28;20202;-72
2023/03/04 09:07:14;;;;;;;24.27;8.83;;;;;;;;;;5090724;28;20230;-72
2023/03/04 09:09:41;;;;;;;25.60;8.97;;;;;;;;;;5090768;28;20298;-72
2023/03/04 09:12:08;;;;;;;21.63;9.17;;;;;;;;;;5091409;28;20206;-72
2023/03/04 09:14:35;;;;;;;23.23;9.57;;;;;;;;;;5088528;28;20217;-72
2023/03/04 09:17:03;;;;;;;23.13;10.00;;;;;;;;;;5090693;28;20217;-76
2023/03/04 09:19:31;;;;;;;23.93;9.63;;;;;;;;;;5089452;28;20202;-67
2023/03/04 09:21:59;;;;;;;27.17;10.07;;;;;;;;;;5088430;28;20230;-71
2023/03/04 09:24:26;;;;;;;18.70;8.87;;;;;;;;;;5089920;28;20206;-72
2023/03/04 09:26:53;;;;;;;25.73;10.03;;;;;;;;;;5087400;28;20209;-72
2023/03/04 09:29:21;;;;;;;35.90;11.53;;;;;;;;;;5090095;28;20211;-72
2023/03/04 09:31:48;;;;;;;34.13;10.80;;;;;;;;;;5089779;28;20229;-71
2023/03/04 09:34:15;;;;;;;32.87;10.10;;;;;;;;;;5090012;28;20206;-71
2023/03/04 09:36:48;;;;;;;23.07;9.80;;;;;;;;;;5085620;28;20301;-75
2023/03/04 09:39:15;;;;;;;23.13;7.67;;;;;;;;;;5089414;28;20892;-73
2023/03/04 09:41:43;;;;;;;22.87;9.43;;;;;;;;;;5089661;28;20190;-71
2023/03/04 09:44:16;;;;;;;24.27;9.93;;;;;;;;;;5089247;28;20688;-67
2023/03/04 09:46:43;;;;;;;22.83;8.70;;;;;;;;;;5089979;28;20206;-71
2023/03/04 09:49:11;;;;;;;20.53;8.73;;;;;;;;;;5090138;28;20242;-66
2023/03/04 09:51:49;;;;;;;20.87;8.70;;;;;;;;;;5089369;28;20719;-68
2023/03/04 09:54:18;;;;;;;25.67;9.27;;;;;;;;;;5089491;28;20207;-65
2023/03/04 09:56:45;;;;;;;26.77;8.97;;;;;;;;;;5089333;28;20210;-68
2023/03/04 09:59:17;;;;;;;29.03;10.57;;;;;;;;;;5087295;28;20208;-67
2023/03/04 10:01:48;;;;;;;15.97;6.97;;;;;;;;;;5086675;28;20219;-72
2023/03/04 10:04:17;;;;;;;22.40;8.60;;;;;;;;;;5088338;28;20878;-64
2023/03/04 10:06:53;;;;;;;25.73;8.00;;;;;;;;;;5077408;28;20297;-67
2023/03/04 10:09:21;;;;;;;17.80;9.23;;;;;;;;;;5070088;28;20206;-66
2023/03/04 10:11:51;;;;;;;25.77;8.87;;;;;;;;;;5081513;28;20228;-66
2023/03/04 10:14:31;;;;;;;19.93;8.17;;;;;;;;;;5068152;28;20600;-67
2023/03/04 10:17:00;;;;;;;23.63;7.23;;;;;;;;;;5084188;28;20221;-68
2023/03/04 10:19:58;;;;;;;16.23;6.30;;;;;;;;;;5070925;28;20213;-70
2023/03/04 10:22:30;;;;;;;19.63;7.80;;;;;;;;;;5078407;28;20223;-66
2023/03/04 10:24:58;;;;;;;25.07;8.43;;;;;;;;;;5086765;28;20214;-70
2023/03/04 10:27:28;;;;;;;14.67;6.13;;;;;;;;;;5081759;28;20213;-70
2023/03/04 10:29:56;;;;;;;17.23;6.17;;;;;;;;;;5084210;28;20669;-70
2023/03/04 10:32:23;;;;;;;8.30;4.17;;;;;;;;;;5087291;28;20270;-70
2023/03/04 10:34:50;;;;;;;2.83;2.00;;;;;;;;;;5087386;28;20214;-70
2023/03/04 10:37:17;;;;;;;6.27;2.47;;;;;;;;;;5082423;28;20221;-70
2023/03/04 10:39:48;;;;;;;6.27;2.87;;;;;;;;;;5084870;28;20215;-70
2023/03/04 10:42:24;;;;;;;6.37;3.00;;;;;;;;;;5086749;28;20198;-70
2023/03/04 10:44:52;;;;;;;4.67;2.57;;;;;;;;;;5088270;28;20368;-70
2023/03/04 10:47:19;;;;;;;8.43;3.03;;;;;;;;;;5086431;28;20204;-69
2023/03/04 10:49:51;;;;;;;6.90;2.47;;;;;;;;;;5087652;28;20213;-70
2023/03/04 10:52:22;;;;;;;12.73;2.40;;;;;;;;;;5087254;28;20251;-70
2023/03/04 10:54:51;;;;;;;5.23;2.53;;;;;;;;;;5087998;28;20210;-70
2023/03/04 10:57:20;;;;;;;8.83;2.33;;;;;;;;;;5086906;28;20566;-70
2023/03/04 10:59:50;;;;;;;3.20;2.27;;;;;;;;;;5087637;28;20289;-70
2023/03/04 11:02:20;;;;;;;4.07;2.73;;;;;;;;;;5086908;28;20730;-70
2023/03/04 11:07:37;;;;;;;10.47;2.60;;;;;;;;;;5085631;28;20718;-71
2023/03/04 11:10:10;;;;;;;7.27;2.23;;;;;;;;;;5087459;28;20675;-69
2023/03/04 11:12:37;;;;;;;2.70;1.97;;;;;;;;;;5087408;28;20297;-70
2023/03/04 11:15:04;;;;;;;4.37;2.10;;;;;;;;;;5086709;28;20210;-70
2023/03/04 11:17:42;;;;;;;7.10;1.80;;;;;;;;;;5086868;28;20927;-70
2023/03/04 11:20:13;;;;;;;5.50;2.50;;;;;;;;;;5084688;28;20209;-71
2023/03/04 11:22:42;;;;;;;9.43;2.33;;;;;;;;;;5086405;28;20225;-70
2023/03/04 11:25:21;;;;;;;2.53;1.60;;;;;;;;;;5086028;28;20198;-70
2023/03/04 11:27:50;;;;;;;12.77;2.30;;;;;;;;;;5087051;28;20202;-70
2023/03/04 11:30:22;;;;;;;3.97;1.73;;;;;;;;;;5087273;28;20659;-72
2023/03/04 11:32:51;;;;;;;11.90;3.57;;;;;;;;;;5080230;28;20202;-72
2023/03/04 11:35:22;;;;;;;9.15;3.70;;;;;;;;;;5076948;28;20440;-69
2023/03/04 11:37:54;;;;;;;2.73;1.70;;;;;;;;;;5064839;28;20195;-73
2023/03/04 11:40:28;;;;;;;1.90;1.77;;;;;;;;;;5078869;28;20198;-71
2023/03/04 11:42:58;;;;;;;3.30;1.10;;;;;;;;;;5078127;28;20210;-72
2023/03/04 11:45:29;;;;;;;7.30;1.53;;;;;;;;;;5077643;28;22015;-73
2023/03/04 11:47:59;;;;;;;12.73;1.73;;;;;;;;;;5082209;28;20716;-72
2023/03/04 11:50:31;;;;;;;4.00;1.87;;;;;;;;;;5075159;28;20261;-72
2023/03/04 11:53:19;;;;;;;2.57;1.77;;;;;;;;;;5070814;28;20201;-72
2023/03/04 11:55:55;;;;;;;6.73;3.97;;;;;;;;;;5079728;28;20202;-73
2023/03/04 11:58:35;;;;;;;6.90;1.90;;;;;;;;;;5082337;28;20213;-72
2023/03/04 12:01:04;;;;;;;1.93;1.80;;;;;;;;;;5085363;28;20229;-70
2023/03/04 12:03:41;;;;;;;13.70;2.63;;;;;;;;;;5083647;28;20228;-72
2023/03/04 12:06:11;;;;;;;5.43;4.03;;;;;;;;;;5081763;28;20222;-72
2023/03/04 12:08:46;;;;;;;19.17;6.60;;;;;;;;;;5081146;28;20202;-72
2023/03/04 12:11:16;;;;;;;5.10;3.97;;;;;;;;;;5085835;28;20225;-69
2023/03/04 12:13:53;;;;;;;16.90;7.87;;;;;;;;;;5086348;28;20294;-65
2023/03/04 12:16:23;;;;;;;3.37;2.10;;;;;;;;;;5086680;28;20214;-71
2023/03/04 12:18:57;;;;;;;4.33;2.30;;;;;;;;;;5085642;28;20203;-71
2023/03/04 12:21:32;;;;;;;6.97;3.50;;;;;;;;;;5086229;28;20275;-70
2023/03/04 12:24:18;;;;;;;4.23;2.40;;;;;;;;;;5083161;28;20206;-71
2023/03/04 12:26:51;;;;;;;2.23;1.63;;;;;;;;;;5083725;28;20211;-73
2023/03/04 12:29:25;;;;;;;6.03;1.40;;;;;;;;;;5084949;28;20202;-65
2023/03/04 12:31:57;;;;;;;3.43;1.90;;;;;;;;;;5085411;28;20218;-72
2023/03/04 12:34:35;;;;;;;2.20;1.10;;;;;;;;;;5071067;28;20206;-72
2023/03/04 12:37:11;;;;;;;7.93;1.47;;;;;;;;;;5082048;28;20236;-73
2023/03/04 12:39:41;;;;;;;3.00;1.50;;;;;;;;;;5085365;28;20339;-72
2023/03/04 12:42:15;;;;;;;4.60;1.90;;;;;;;;;;5085855;28;20486;-72
2023/03/04 12:44:46;;;;;;;4.17;1.63;;;;;;;;;;5085158;28;20312;-75
2023/03/04 12:47:18;;;;;;;2.93;1.50;;;;;;;;;;5080124;28;20199;-72
2023/03/04 12:49:52;;;;;;;2.13;1.40;;;;;;;;;;5076907;28;20633;-72
2023/03/04 12:52:23;;;;;;;10.93;2.20;;;;;;;;;;5089547;28;20237;-72
2023/03/04 12:54:54;;;;;;;25.63;7.17;;;;;;;;;;5087418;28;20667;-72
2023/03/04 12:57:24;;;;;;;3.67;2.30;;;;;;;;;;5088670;28;20218;-76
2023/03/04 12:59:53;;;;;;;4.03;1.77;;;;;;;;;;5070815;28;20290;-70
2023/03/04 13:02:36;;;;;;;7.27;2.40;;;;;;;;;;5089357;28;20248;-72
2023/03/04 13:05:08;;;;;;;6.03;2.60;;;;;;;;;;5088872;28;20206;-70
2023/03/04 13:07:42;;;;;;;4.63;1.80;;;;;;;;;;5088799;28;20307;-70
2023/03/04 13:10:11;;;;;;;5.17;1.70;;;;;;;;;;5078332;28;20217;-70
2023/03/04 13:12:50;;;;;;;5.50;2.23;;;;;;;;;;5086843;28;20226;-70
2023/03/04 13:15:18;;;;;;;4.53;2.40;;;;;;;;;;5087937;28;20202;-71
2023/03/04 13:17:48;;;;;;;5.33;2.30;;;;;;;;;;5077904;28;20673;-70
2023/03/04 13:20:20;;;;;;;3.53;2.47;;;;;;;;;;5088681;28;20252;-71
2023/03/04 13:22:52;;;;;;;4.70;2.07;;;;;;;;;;5072703;28;20234;-70
2023/03/04 13:25:32;;;;;;;15.53;2.40;;;;;;;;;;5076838;28;20268;-70
2023/03/04 13:28:17;;;;;;;7.50;2.20;;;;;;;;;;5082023;28;20203;-70
2023/03/04 13:30:59;;;;;;;4.83;2.43;;;;;;;;;;5088857;28;20747;-68
2023/03/04 13:33:46;;;;;;;4.80;2.23;;;;;;;;;;5070281;28;20207;-69
2023/03/04 13:36:27;;;;;;;4.43;2.00;;;;;;;;;;5084350;28;20206;-72
2023/03/04 13:39:00;;;;;;;1.53;1.33;;;;;;;;;;5067730;28;20692;-72
2023/03/04 13:41:31;;;;;;;20.63;12.07;;;;;;;;;;5084603;28;20288;-68
2023/03/04 13:43:59;;;;;;;28.00;18.67;;;;;;;;;;5080284;28;20207;-71
2023/03/04 13:46:30;;;;;;;8.93;5.83;;;;;;;;;;5068094;28;20207;-70
2023/03/04 13:49:03;;;;;;;3.33;2.97;;;;;;;;;;5083668;28;20206;-71
2023/03/04 13:51:31;;;;;;;2.43;2.20;;;;;;;;;;5087701;28;20238;-69
2023/03/04 13:54:10;;;;;;;2.37;1.87;;;;;;;;;;5087759;28;20708;-71
2023/03/04 13:56:37;;;;;;;2.27;2.13;;;;;;;;;;5082893;28;20203;-68
2023/03/04 13:59:12;;;;;;;3.30;2.10;;;;;;;;;;5070129;28;20903;-73
2023/03/04 14:01:49;;;;;;;11.20;5.97;;;;;;;;;;5083457;28;20266;-72
2023/03/04 14:04:18;;;;;;;11.73;6.63;;;;;;;;;;5089308;28;20213;-71
2023/03/04 14:06:46;;;;;;;10.73;6.63;;;;;;;;;;5086841;28;20729;-71
2023/03/04 14:09:13;;;;;;;4.70;3.87;;;;;;;;;;5073106;28;20241;-72
2023/03/04 14:11:41;;;;;;;3.87;3.33;;;;;;;;;;5079577;28;20279;-72
2023/03/04 14:14:11;;;;;;;4.20;2.47;;;;;;;;;;5086534;28;20260;-71
2023/03/04 14:16:40;;;;;;;2.97;2.10;;;;;;;;;;5087861;28;20206;-70
2023/03/04 14:19:14;;;;;;;12.47;6.60;;;;;;;;;;5082797;28;20201;-67
2023/03/04 14:21:44;;;;;;;3.57;3.23;;;;;;;;;;5077537;28;20279;-73
2023/03/04 14:24:13;;;;;;;3.13;2.13;;;;;;;;;;5078928;28;20205;-70
2023/03/04 14:26:40;;;;;;;8.40;2.40;;;;;;;;;;5088332;28;20202;-69
2023/03/04 14:29:22;;;;;;;18.77;2.80;;;;;;;;;;5079365;28;20203;-71
2023/03/04 14:31:49;;;;;;;3.20;1.70;;;;;;;;;;5087802;28;20276;-70
2023/03/04 14:34:22;;;;;;;5.70;2.70;;;;;;;;;;5084205;28;20294;-71
2023/03/04 14:36:49;;;;;;;4.03;2.87;;;;;;;;;;5080484;28;20612;-71
2023/03/04 14:39:19;;;;;;;7.30;3.00;;;;;;;;;;5084121;28;20203;-72
2023/03/04 14:41:48;;;;;;;4.03;2.90;;;;;;;;;;5087098;28;20198;-69
2023/03/04 14:44:18;;;;;;;2.33;2.10;;;;;;;;;;5081286;28;20210;-71
2023/03/04 14:46:49;;;;;;;7.33;2.20;;;;;;;;;;5087980;28;20202;-71
2023/03/04 14:49:16;;;;;;;2.70;2.10;;;;;;;;;;5086158;28;20205;-73